createdAt,value
2022-12-22T00:01:59.399Z,77.87
2022-12-22T00:04:45.090Z,75.12
2022-12-22T00:07:30.669Z,62.05
2022-12-22T00:10:16.337Z,72.12
2022-12-22T00:13:01.953Z,65.78
2022-12-22T00:15:50.572Z,74.65
2022-12-22T00:18:35.922Z,71.30
2022-12-22T00:21:21.445Z,69.47
2022-12-22T00:24:06.976Z,66.60
2022-12-22T00:26:53.629Z,70.72
2022-12-22T00:29:39.501Z,63.47
2022-12-22T00:32:25.311Z,59.97
2022-12-22T00:35:10.839Z,62.20
2022-12-22T00:37:56.860Z,76.07
2022-12-22T00:40:46.668Z,77.00
2022-12-22T00:43:32.674Z,64.22
2022-12-22T00:46:20.292Z,73.12
2022-12-22T00:49:05.703Z,63.50
2022-12-22T00:51:51.435Z,64.90
2022-12-22T00:54:37.788Z,67.47
2022-12-22T00:57:24.431Z,64.00
2022-12-22T01:00:09.951Z,59.95
2022-12-22T01:02:55.703Z,62.62
2022-12-22T01:05:41.107Z,58.70
2022-12-22T01:08:28.220Z,62.88
2022-12-22T01:11:13.842Z,65.12
2022-12-22T01:13:59.409Z,70.25
2022-12-22T01:16:44.933Z,63.83
2022-12-22T01:19:30.709Z,62.10
2022-12-22T01:22:16.194Z,61.25
2022-12-22T01:25:02.793Z,59.65
2022-12-22T01:27:48.345Z,59.42
2022-12-22T01:30:34.016Z,63.63
2022-12-22T01:33:19.653Z,51.67
2022-12-22T01:36:05.323Z,61.58
2022-12-22T01:38:51.032Z,62.95
2022-12-22T01:41:39.137Z,65.18
2022-12-22T01:44:35.260Z,50.22
2022-12-22T01:47:48.731Z,56.25
2022-12-22T01:50:35.220Z,52.88
2022-12-22T01:53:21.808Z,48.50
2022-12-22T01:56:07.357Z,47.28
2022-12-22T01:58:56.119Z,50.28
2022-12-22T02:01:41.557Z,46.40
2022-12-22T02:04:27.118Z,47.40
2022-12-22T02:07:15.872Z,42.47
2022-12-22T02:10:17.186Z,51.00
2022-12-22T02:13:19.544Z,44.40
2022-12-22T02:16:12.300Z,40.35
2022-12-22T02:19:08.698Z,50.10
2022-12-22T02:22:06.595Z,49.22
2022-12-22T02:24:54.492Z,45.72
2022-12-22T02:30:28.330Z,43.45
2022-12-22T02:33:13.755Z,43.70
2022-12-22T02:36:01.800Z,42.17
2022-12-22T02:39:06.157Z,48.20
2022-12-22T02:42:29.989Z,41.25
2022-12-22T02:45:54.256Z,42.67
2022-12-22T02:48:48.950Z,38.85
2022-12-22T02:51:40.875Z,45.15
2022-12-22T02:54:26.447Z,46.58
2022-12-22T02:57:11.856Z,47.92
2022-12-22T02:59:57.472Z,45.33
2022-12-22T03:02:43.204Z,43.78
2022-12-22T03:05:28.808Z,45.85
2022-12-22T03:08:14.391Z,48.60
2022-12-22T03:10:59.993Z,45.78
2022-12-22T03:13:45.559Z,35.63
2022-12-22T03:16:31.239Z,44.58
2022-12-22T03:19:17.013Z,40.05
2022-12-22T03:22:02.569Z,42.17
2022-12-22T03:24:48.258Z,44.60
2022-12-22T03:27:15.163Z,53.55
2022-12-22T03:29:42.043Z,49.45
2022-12-22T03:32:08.898Z,50.60
2022-12-22T03:34:35.769Z,49.70
2022-12-22T03:39:29.240Z,50.58
2022-12-22T03:45:00.196Z,47.65
2022-12-22T03:47:27.054Z,48.97
2022-12-22T03:52:22.681Z,49.50
2022-12-22T03:54:49.607Z,53.87
2022-12-22T03:57:16.434Z,46.50
2022-12-22T04:02:19.798Z,43.72
2022-12-22T04:04:46.768Z,39.67
2022-12-22T04:10:00.263Z,36.35
2022-12-22T04:12:45.837Z,43.75
2022-12-22T04:15:12.678Z,41.08
2022-12-22T04:20:07.213Z,50.85
2022-12-22T04:22:34.029Z,44.00
2022-12-22T04:27:27.532Z,39.30
2022-12-22T04:32:21.061Z,38.95
2022-12-22T04:34:47.908Z,47.28
2022-12-22T04:39:51.675Z,39.25
2022-12-22T04:42:18.523Z,50.10
2022-12-22T04:47:12.094Z,40.35
2022-12-22T04:49:39.999Z,40.83
2022-12-22T04:52:06.883Z,40.47
2022-12-22T04:54:34.051Z,41.25
2022-12-22T04:57:01.216Z,40.30
2022-12-22T04:59:28.065Z,39.35
2022-12-22T05:01:54.959Z,36.92
2022-12-22T05:04:23.869Z,38.03
2022-12-22T05:06:50.962Z,40.05
2022-12-22T05:11:44.511Z,34.25
2022-12-22T05:14:11.370Z,36.00
2022-12-22T05:16:38.303Z,38.22
2022-12-22T05:19:05.234Z,34.53
2022-12-22T05:21:32.114Z,40.67
2022-12-22T05:23:58.959Z,37.55
2022-12-22T05:28:52.762Z,34.67
2022-12-22T05:31:25.598Z,42.05
2022-12-22T05:33:52.651Z,44.03
2022-12-22T05:36:19.915Z,43.85
2022-12-22T05:38:46.887Z,51.13
2022-12-22T05:41:14.294Z,48.05
2022-12-22T05:43:41.416Z,38.97
2022-12-22T05:46:11.342Z,45.10
2022-12-22T05:48:39.861Z,38.47
2022-12-22T05:51:08.513Z,32.88
2022-12-22T05:53:35.547Z,38.42
2022-12-22T05:56:02.596Z,39.58
2022-12-22T05:58:29.450Z,37.90
2022-12-22T06:03:25.220Z,41.50
2022-12-22T06:05:52.179Z,39.15
2022-12-22T06:08:19.378Z,37.50
2022-12-22T06:10:46.469Z,41.58
2022-12-22T06:13:13.322Z,42.75
2022-12-22T06:15:40.224Z,42.05
2022-12-22T06:18:07.089Z,116.62
2022-12-22T06:23:00.675Z,192.20
2022-12-22T06:25:27.505Z,173.60
2022-12-22T06:27:54.501Z,186.95
2022-12-22T06:32:54.305Z,118.03
2022-12-22T06:37:47.849Z,99.75
2022-12-22T06:43:08.109Z,104.28
2022-12-22T06:45:41.204Z,145.57
2022-12-22T06:48:09.431Z,207.98
2022-12-22T06:50:36.356Z,161.88
2022-12-22T06:53:03.899Z,218.98
2022-12-22T06:55:30.824Z,223.35
2022-12-22T07:00:25.606Z,211.48
2022-12-22T07:02:52.820Z,243.35
2022-12-22T07:05:20.200Z,210.55
2022-12-22T07:07:47.276Z,102.15
2022-12-22T07:10:14.175Z,88.87
2022-12-22T07:12:41.470Z,56.30
2022-12-22T07:15:08.976Z,53.20
2022-12-22T07:17:35.889Z,51.75
2022-12-22T07:20:02.984Z,39.50
2022-12-22T07:22:30.981Z,38.83
2022-12-22T07:24:58.983Z,40.63
2022-12-22T07:27:26.039Z,39.33
2022-12-22T07:29:52.893Z,41.20
2022-12-22T07:34:46.598Z,37.08
2022-12-22T07:37:13.997Z,34.33
2022-12-22T07:39:41.059Z,36.05
2022-12-22T07:42:26.387Z,39.00
2022-12-22T07:44:53.215Z,36.22
2022-12-22T07:50:05.431Z,35.80
2022-12-22T07:52:32.305Z,37.33
2022-12-22T07:54:59.317Z,41.33
2022-12-22T07:57:26.455Z,40.33
2022-12-22T07:59:54.163Z,37.30
2022-12-22T08:02:21.171Z,38.78
2022-12-22T08:04:48.273Z,38.30
2022-12-22T08:07:15.229Z,35.42
2022-12-22T08:09:42.104Z,37.50
2022-12-22T08:12:09.161Z,38.60
2022-12-22T08:14:35.995Z,36.63
2022-12-22T08:19:29.640Z,37.47
2022-12-22T08:21:56.515Z,36.25
2022-12-22T08:24:23.391Z,36.75
2022-12-22T08:26:53.997Z,33.45
2022-12-22T08:29:33.838Z,35.50
2022-12-22T08:32:00.994Z,36.50
2022-12-22T08:34:28.129Z,36.03
2022-12-22T08:36:57.982Z,35.75
2022-12-22T08:39:26.195Z,35.33
2022-12-22T08:41:53.658Z,36.30
2022-12-22T08:44:30.764Z,35.63
2022-12-22T08:46:59.267Z,35.13
2022-12-22T08:49:26.815Z,32.33
2022-12-22T08:51:54.549Z,31.05
2022-12-22T08:54:21.617Z,34.47
2022-12-22T08:56:49.666Z,36.05
2022-12-22T08:59:16.764Z,37.70
2022-12-22T09:01:47.385Z,38.33
2022-12-22T09:04:15.492Z,52.05
2022-12-22T09:06:42.459Z,50.53
2022-12-22T09:09:10.837Z,70.18
2022-12-22T09:11:38.332Z,113.85
2022-12-22T09:14:05.744Z,87.03
2022-12-22T09:16:34.068Z,65.87
2022-12-22T09:19:01.455Z,78.12
2022-12-22T09:21:29.051Z,76.65
2022-12-22T09:23:56.929Z,45.97
2022-12-22T09:26:25.956Z,41.05
2022-12-22T09:28:52.887Z,53.47
2022-12-22T09:31:21.494Z,43.60
2022-12-22T09:33:48.712Z,55.33
2022-12-22T09:36:18.415Z,48.60
2022-12-22T09:38:45.532Z,44.38
2022-12-22T09:41:23.676Z,40.67
2022-12-22T09:43:50.618Z,44.70
2022-12-22T09:46:28.828Z,42.15
2022-12-22T09:48:56.139Z,43.72
2022-12-22T09:51:27.174Z,47.20
2022-12-22T09:53:59.619Z,46.45
2022-12-22T09:56:28.822Z,45.83
2022-12-22T09:58:56.115Z,41.00
2022-12-22T10:01:35.716Z,40.75
2022-12-22T10:04:29.976Z,43.50
2022-12-22T10:07:02.811Z,43.08
2022-12-22T10:09:50.654Z,48.15
2022-12-22T10:12:24.357Z,45.95
2022-12-22T10:14:52.923Z,50.42
2022-12-22T10:17:24.117Z,45.53
2022-12-22T10:19:53.678Z,46.05
2022-12-22T10:22:46.077Z,54.80
2022-12-22T10:25:27.233Z,50.60
2022-12-22T10:28:01.772Z,60.97
2022-12-22T10:30:37.928Z,58.72
2022-12-22T10:33:11.773Z,62.67
2022-12-22T10:35:47.780Z,65.15
2022-12-22T10:38:27.889Z,66.15
2022-12-22T10:41:02.075Z,62.85
2022-12-22T10:43:40.323Z,80.03
2022-12-22T10:46:07.325Z,85.50
2022-12-22T10:48:36.910Z,85.00
2022-12-22T10:51:06.879Z,65.70
2022-12-22T10:53:52.772Z,52.83
2022-12-22T10:56:32.363Z,51.13
2022-12-22T10:59:02.198Z,49.00
2022-12-22T11:01:36.904Z,66.53
2022-12-22T11:04:26.239Z,75.20
2022-12-22T11:06:54.782Z,57.15
2022-12-22T11:09:33.891Z,57.08
2022-12-22T11:12:32.499Z,82.35
2022-12-22T11:15:24.588Z,58.57
2022-12-22T11:17:58.440Z,63.03
2022-12-22T11:20:47.886Z,55.67
2022-12-22T11:23:38.473Z,69.82
2022-12-22T11:26:31.685Z,74.65
2022-12-22T11:29:17.104Z,61.35
2022-12-22T11:31:56.120Z,73.82
2022-12-22T11:34:58.778Z,60.38
2022-12-22T11:37:47.719Z,66.75
2022-12-22T11:40:33.688Z,67.85
2022-12-22T11:43:34.706Z,66.57
2022-12-22T11:46:27.331Z,72.87
2022-12-22T11:49:19.297Z,70.03
2022-12-22T11:52:10.339Z,76.87
2022-12-22T11:55:25.796Z,66.57
2022-12-22T11:58:08.356Z,69.82
2022-12-22T12:01:13.715Z,59.10
2022-12-22T12:03:30.018Z,76.87
2022-12-22T12:06:15.441Z,102.03
2022-12-22T12:09:04.927Z,83.18
2022-12-22T12:11:56.202Z,93.70
2022-12-22T12:14:34.276Z,90.53
2022-12-22T12:17:13.414Z,96.75
2022-12-22T12:19:58.757Z,75.18
2022-12-22T12:22:36.852Z,87.28
2022-12-22T12:25:26.237Z,85.72
2022-12-22T12:28:08.069Z,79.55
2022-12-22T12:30:52.543Z,68.05
2022-12-22T12:33:36.607Z,56.78
2022-12-22T12:36:38.598Z,68.90
2022-12-22T12:39:24.488Z,75.18
2022-12-22T12:42:09.805Z,78.03
2022-12-22T12:44:37.294Z,100.60
2022-12-22T12:47:22.257Z,61.58
2022-12-22T12:49:53.217Z,66.12
2022-12-22T12:52:40.104Z,57.08
2022-12-22T12:55:34.635Z,74.28
2022-12-22T12:58:04.107Z,69.72
2022-12-22T13:00:34.105Z,58.78
2022-12-22T13:03:02.631Z,86.85
2022-12-22T13:05:33.502Z,80.72
2022-12-22T13:08:25.617Z,84.55
2022-12-22T13:10:55.620Z,61.75
2022-12-22T13:13:22.431Z,71.50
2022-12-22T13:18:34.764Z,87.50
2022-12-22T13:24:25.152Z,104.72
2022-12-22T13:26:55.388Z,72.15
2022-12-22T13:29:22.216Z,60.33
2022-12-22T13:32:01.315Z,80.47
2022-12-22T13:35:20.233Z,47.90
2022-12-22T13:37:43.563Z,78.80
2022-12-22T13:40:25.827Z,72.25
2022-12-22T13:42:55.547Z,67.10
2022-12-22T13:45:43.949Z,114.43
2022-12-22T13:48:35.926Z,113.53
2022-12-22T13:51:34.496Z,127.97
2022-12-22T13:54:09.907Z,74.10
2022-12-22T13:56:42.105Z,85.53
2022-12-22T13:59:21.895Z,68.68
2022-12-22T14:01:56.767Z,138.98
2022-12-22T14:04:23.886Z,140.35
2022-12-22T14:06:50.765Z,122.13
2022-12-22T14:12:12.001Z,127.15
2022-12-22T14:14:41.365Z,83.47
2022-12-22T14:17:26.251Z,80.00
2022-12-22T14:19:55.599Z,98.90
2022-12-22T14:22:26.047Z,182.12
2022-12-22T14:24:56.543Z,128.35
2022-12-22T14:27:23.331Z,141.07
2022-12-22T14:32:38.526Z,133.12
2022-12-22T14:35:21.570Z,341.90
2022-12-22T14:37:49.906Z,166.20
2022-12-22T14:40:37.681Z,166.95
2022-12-22T14:43:07.151Z,228.55
2022-12-22T14:45:34.342Z,174.38
2022-12-22T14:48:01.244Z,132.35
2022-12-22T14:52:57.702Z,90.05
2022-12-22T14:55:49.383Z,183.93
2022-12-22T14:58:23.081Z,323.87
2022-12-22T15:01:14.648Z,146.15
2022-12-22T15:03:42.358Z,164.77
2022-12-22T15:06:27.660Z,326.73
2022-12-22T15:09:09.144Z,362.30
2022-12-22T15:11:38.500Z,270.60
2022-12-22T15:14:05.443Z,134.50
2022-12-22T15:16:32.376Z,295.92
2022-12-22T15:18:59.280Z,221.25
2022-12-22T15:23:52.780Z,122.75
2022-12-22T15:28:46.346Z,72.57
2022-12-22T15:31:17.344Z,64.45
2022-12-22T15:33:45.034Z,54.50
2022-12-22T15:36:13.684Z,152.38
2022-12-22T15:38:42.345Z,361.58
2022-12-22T15:41:09.268Z,238.65
2022-12-22T15:46:23.174Z,175.77
2022-12-22T15:48:50.162Z,194.55
2022-12-22T15:51:25.776Z,270.00
2022-12-22T15:53:53.538Z,108.68
2022-12-22T15:56:22.691Z,115.03
2022-12-22T15:58:49.998Z,166.52
2022-12-22T16:01:17.151Z,117.82
2022-12-22T16:03:44.269Z,156.12
2022-12-22T16:06:16.393Z,155.12
2022-12-22T16:08:48.916Z,223.65
2022-12-22T16:11:16.050Z,147.55
2022-12-22T16:13:42.928Z,129.25
2022-12-22T16:16:09.862Z,157.75
2022-12-22T16:18:36.885Z,268.83
2022-12-22T16:21:12.249Z,316.98
2022-12-22T16:23:41.450Z,140.65
2022-12-22T16:26:08.882Z,190.98
2022-12-22T16:28:35.772Z,161.37
2022-12-22T16:31:02.738Z,146.65
2022-12-22T16:33:29.618Z,286.23
2022-12-22T16:38:23.106Z,403.80
2022-12-22T16:40:52.315Z,287.67
2022-12-22T16:43:50.387Z,324.12
2022-12-22T16:46:19.300Z,225.60
2022-12-22T16:48:51.365Z,151.52
2022-12-22T16:51:24.854Z,179.80
2022-12-22T16:53:51.843Z,197.15
2022-12-22T16:56:24.999Z,316.67
2022-12-22T16:58:51.831Z,241.07
2022-12-22T17:03:52.569Z,121.37
2022-12-22T17:06:19.547Z,81.25
2022-12-22T17:08:46.889Z,224.95
2022-12-22T17:11:24.297Z,245.43
2022-12-22T17:16:23.280Z,292.77
2022-12-22T17:18:50.263Z,198.45
2022-12-22T17:21:19.035Z,102.25
2022-12-22T17:23:50.215Z,70.22
2022-12-22T17:26:20.158Z,113.90
2022-12-22T17:28:47.906Z,158.25
2022-12-22T17:31:17.274Z,89.15
2022-12-22T17:33:44.253Z,83.57
2022-12-22T17:36:18.711Z,62.08
2022-12-22T17:38:45.987Z,55.25
2022-12-22T17:41:17.377Z,56.63
2022-12-22T17:43:45.393Z,56.08
2022-12-22T17:46:20.251Z,53.22
2022-12-22T17:48:47.743Z,52.35
2022-12-22T17:51:25.643Z,51.05
2022-12-22T17:53:53.166Z,57.30
2022-12-22T17:56:22.294Z,52.60
2022-12-22T17:58:49.906Z,55.65
2022-12-22T18:01:21.974Z,59.15
2022-12-22T18:03:49.139Z,53.53
2022-12-22T18:06:18.287Z,75.70
2022-12-22T18:08:45.655Z,68.22
2022-12-22T18:11:12.813Z,53.92
2022-12-22T18:13:39.708Z,49.58
2022-12-22T18:16:07.689Z,57.28
2022-12-22T18:18:35.017Z,49.63
2022-12-22T18:21:05.933Z,50.12
2022-12-22T18:23:35.057Z,52.05
2022-12-22T18:26:01.959Z,51.55
2022-12-22T18:28:28.832Z,52.58
2022-12-22T18:30:55.704Z,49.90
2022-12-22T18:33:22.572Z,55.30
2022-12-22T18:35:49.639Z,46.60
2022-12-22T18:38:27.966Z,51.00
2022-12-22T18:40:55.301Z,51.97
2022-12-22T18:43:22.372Z,45.00
2022-12-22T18:45:49.353Z,45.08
2022-12-22T18:48:16.496Z,57.55
2022-12-22T18:50:43.649Z,61.28
2022-12-22T18:53:24.874Z,59.03
2022-12-22T18:55:51.857Z,72.03
2022-12-22T18:58:18.753Z,66.85
2022-12-22T19:00:45.745Z,72.93
2022-12-22T19:03:17.793Z,67.85
2022-12-22T19:05:45.660Z,85.07
2022-12-22T19:08:16.738Z,58.20
2022-12-22T19:10:55.198Z,67.57
2022-12-22T19:13:38.890Z,72.40
2022-12-22T19:16:06.843Z,46.47
2022-12-22T19:18:33.766Z,45.85
2022-12-22T19:21:00.646Z,38.15
2022-12-22T19:23:27.518Z,38.17
2022-12-22T19:26:08.396Z,39.85
2022-12-22T19:28:41.470Z,34.88
2022-12-22T19:31:10.320Z,35.15
2022-12-22T19:33:41.678Z,35.88
2022-12-22T19:36:15.585Z,34.20
2022-12-22T19:38:44.013Z,36.47
2022-12-22T19:41:23.625Z,35.25
2022-12-22T19:43:50.509Z,30.08
2022-12-22T19:46:17.430Z,35.25
2022-12-22T19:48:46.453Z,33.38
2022-12-22T19:51:17.603Z,38.55
2022-12-22T19:53:44.828Z,37.03
2022-12-22T19:58:47.315Z,33.05
2022-12-22T20:01:14.230Z,35.42
2022-12-22T20:03:41.231Z,40.40
2022-12-22T20:06:09.061Z,43.97
2022-12-22T20:08:36.310Z,46.58
2022-12-22T20:11:03.318Z,55.58
2022-12-22T20:13:32.182Z,52.67
2022-12-22T20:15:59.496Z,46.30
2022-12-22T20:18:29.288Z,55.22
2022-12-22T20:21:01.796Z,57.97
2022-12-22T20:23:29.989Z,59.30
2022-12-22T20:26:06.295Z,63.15
2022-12-22T20:28:37.212Z,56.65
2022-12-22T20:31:05.510Z,57.60
2022-12-22T20:33:33.066Z,55.97
2022-12-22T20:36:01.258Z,56.22
2022-12-22T20:38:32.287Z,42.90
2022-12-22T20:40:59.803Z,44.95
2022-12-22T20:43:28.330Z,40.83
2022-12-22T20:45:57.693Z,44.42
2022-12-22T20:48:39.424Z,42.03
2022-12-22T20:51:10.483Z,39.67
2022-12-22T20:53:37.347Z,47.00
2022-12-22T20:56:04.437Z,41.10
2022-12-22T20:58:34.403Z,39.55
2022-12-22T21:01:02.026Z,41.60
2022-12-22T21:03:29.017Z,45.53
2022-12-22T21:05:56.001Z,46.08
2022-12-22T21:08:25.428Z,41.75
2022-12-22T21:10:54.061Z,43.90
2022-12-22T21:13:21.133Z,40.45
2022-12-22T21:15:50.941Z,44.10
2022-12-22T21:18:22.737Z,47.13
2022-12-22T21:20:50.633Z,44.97
2022-12-22T21:23:17.792Z,44.15
2022-12-22T21:25:47.258Z,47.78
2022-12-22T21:28:37.454Z,44.03
2022-12-22T21:31:04.846Z,49.13
2022-12-22T21:33:31.744Z,50.10
2022-12-22T21:35:59.592Z,51.08
2022-12-22T21:38:28.083Z,88.32
2022-12-22T21:40:55.061Z,145.82
2022-12-22T21:43:21.956Z,121.03
2022-12-22T21:45:49.679Z,184.43
2022-12-22T21:48:19.927Z,141.82
2022-12-22T21:50:50.413Z,174.65
2022-12-22T21:53:21.985Z,235.80
2022-12-22T21:55:49.514Z,201.90
2022-12-22T21:58:16.738Z,148.02
2022-12-22T22:00:48.942Z,113.70
2022-12-22T22:03:16.697Z,160.05
2022-12-22T22:05:43.936Z,192.32
2022-12-22T22:08:12.454Z,137.35
2022-12-22T22:10:41.723Z,129.70
2022-12-22T22:13:10.199Z,140.02
2022-12-22T22:15:37.325Z,251.07
2022-12-22T22:18:07.219Z,176.57
2022-12-22T22:20:35.153Z,51.60
2022-12-22T22:23:02.140Z,46.33
2022-12-22T22:25:29.043Z,44.65
2022-12-22T22:27:59.568Z,47.10
2022-12-22T22:30:27.137Z,47.50
2022-12-22T22:32:54.999Z,52.83
2022-12-22T22:35:22.623Z,77.10
2022-12-22T22:37:52.718Z,107.78
2022-12-22T22:40:21.943Z,150.12
2022-12-22T22:42:49.205Z,109.85
2022-12-22T22:45:23.301Z,147.15
2022-12-22T22:47:51.321Z,138.82
2022-12-22T22:50:19.204Z,140.48
2022-12-22T22:52:46.445Z,149.35
2022-12-22T22:55:14.497Z,88.75
2022-12-22T22:57:42.671Z,144.10
2022-12-22T23:00:12.430Z,126.68
2022-12-22T23:02:39.429Z,87.30
2022-12-22T23:05:07.591Z,169.25
2022-12-22T23:07:35.830Z,159.18
2022-12-22T23:10:03.291Z,186.57
2022-12-22T23:12:30.125Z,142.73
2022-12-22T23:17:24.127Z,135.15
2022-12-22T23:19:50.978Z,144.13
2022-12-22T23:24:44.496Z,141.73
2022-12-22T23:27:11.597Z,161.98
2022-12-22T23:29:38.479Z,154.27
2022-12-22T23:32:05.859Z,256.83
2022-12-22T23:34:33.072Z,196.80
2022-12-22T23:36:59.898Z,193.10
2022-12-22T23:41:53.421Z,215.93
2022-12-22T23:46:47.004Z,234.48
2022-12-22T23:49:14.192Z,204.60
2022-12-22T23:51:41.110Z,221.15
2022-12-22T23:54:08.000Z,203.43
2022-12-22T23:56:34.849Z,213.37
